createdAt,value
2022-10-02T00:00:38.298Z,10.67
2022-10-02T00:03:17.526Z,10.66
2022-10-02T00:05:54.011Z,10.58
2022-10-02T00:08:30.742Z,10.53
2022-10-02T00:11:09.567Z,10.60
2022-10-02T00:13:47.364Z,10.60
2022-10-02T00:16:28.988Z,10.49
2022-10-02T00:18:58.960Z,10.49
2022-10-02T00:22:01.801Z,10.46
2022-10-02T00:24:40.311Z,10.39
2022-10-02T00:27:31.081Z,10.37
2022-10-02T00:30:03.872Z,10.36
2022-10-02T00:32:43.340Z,10.42
2022-10-02T00:35:56.006Z,10.42
2022-10-02T00:38:46.051Z,10.30
2022-10-02T00:42:17.901Z,10.31
2022-10-02T00:45:16.886Z,10.34
2022-10-02T00:47:59.647Z,10.32
2022-10-02T00:50:42.395Z,10.33
2022-10-02T00:53:29.325Z,10.27
2022-10-02T00:56:21.123Z,10.28
2022-10-02T00:59:13.916Z,10.18
2022-10-02T01:01:50.948Z,10.07
2022-10-02T01:04:30.193Z,10.12
2022-10-02T01:06:59.747Z,10.10
2022-10-02T01:09:29.299Z,10.17
2022-10-02T01:11:59.042Z,10.21
2022-10-02T01:14:35.022Z,10.21
2022-10-02T01:17:08.739Z,10.24
2022-10-02T01:19:42.022Z,10.22
2022-10-02T01:22:31.760Z,10.23
2022-10-02T01:25:05.926Z,10.22
2022-10-02T01:27:39.168Z,10.33
2022-10-02T01:30:13.009Z,10.34
2022-10-02T01:32:49.423Z,10.42
2022-10-02T01:35:21.579Z,10.34
2022-10-02T01:37:53.350Z,10.33
2022-10-02T01:40:31.277Z,10.39
2022-10-02T01:43:04.454Z,10.43
2022-10-02T01:45:59.060Z,10.36
2022-10-02T01:48:47.935Z,10.37
2022-10-02T01:51:57.970Z,10.49
2022-10-02T01:54:41.941Z,10.47
2022-10-02T01:57:29.120Z,10.55
2022-10-02T02:00:09.382Z,10.61
2022-10-02T02:02:53.691Z,10.52
2022-10-02T02:05:42.983Z,10.43
2022-10-02T02:08:22.904Z,10.45
2022-10-02T02:11:05.998Z,10.47
2022-10-02T02:13:46.186Z,10.46
2022-10-02T02:16:27.273Z,10.42
2022-10-02T02:19:07.044Z,10.47
2022-10-02T02:21:43.038Z,10.47
2022-10-02T02:24:19.327Z,10.51
2022-10-02T02:26:54.188Z,10.49
2022-10-02T02:29:32.072Z,10.51
2022-10-02T02:32:08.286Z,10.53
2022-10-02T02:34:44.428Z,10.48
2022-10-02T02:37:19.420Z,10.40
2022-10-02T02:39:55.213Z,10.37
2022-10-02T02:42:29.475Z,10.35
2022-10-02T02:45:09.774Z,10.40
2022-10-02T02:47:47.811Z,10.35
2022-10-02T02:50:25.317Z,10.38
2022-10-02T02:53:03.388Z,10.32
2022-10-02T02:55:44.137Z,10.36
2022-10-02T02:58:21.927Z,10.20
2022-10-02T03:00:52.452Z,10.21
2022-10-02T03:03:21.654Z,10.19
2022-10-02T03:05:59.679Z,10.20
2022-10-02T03:08:33.914Z,10.12
2022-10-02T03:11:19.054Z,10.18
2022-10-02T03:14:02.597Z,10.21
2022-10-02T03:16:52.381Z,10.07
2022-10-02T03:19:39.495Z,10.11
2022-10-02T03:22:20.430Z,10.23
2022-10-02T03:24:58.498Z,10.30
2022-10-02T03:27:39.314Z,10.33
2022-10-02T03:30:11.337Z,10.31
2022-10-02T03:32:46.934Z,10.39
2022-10-02T03:35:16.743Z,10.31
2022-10-02T03:37:55.624Z,10.23
2022-10-02T03:40:26.271Z,10.20
2022-10-02T03:42:58.556Z,10.20
2022-10-02T03:45:49.886Z,10.14
2022-10-02T03:48:18.350Z,10.07
2022-10-02T03:50:47.819Z,10.03
2022-10-02T03:53:18.771Z,10.01
2022-10-02T03:55:53.596Z,10.03
2022-10-02T03:58:23.482Z,9.97
2022-10-02T04:01:04.308Z,10.03
2022-10-02T04:03:42.595Z,10.06
2022-10-02T04:06:14.592Z,10.01
2022-10-02T04:08:52.578Z,9.93
2022-10-02T04:11:35.886Z,9.91
2022-10-02T04:14:15.455Z,9.95
2022-10-02T04:16:53.563Z,10.03
2022-10-02T04:19:34.154Z,9.99
2022-10-02T04:22:14.118Z,10.12
2022-10-02T04:24:51.671Z,10.03
2022-10-02T04:27:32.589Z,10.02
2022-10-02T04:30:09.541Z,9.94
2022-10-02T04:32:39.693Z,9.96
2022-10-02T04:35:16.348Z,9.88
2022-10-02T04:38:09.653Z,9.94
2022-10-02T04:41:05.543Z,10.00
2022-10-02T04:44:01.538Z,9.91
2022-10-02T04:47:30.498Z,9.91
2022-10-02T04:50:25.350Z,9.88
2022-10-02T04:53:15.283Z,9.87
2022-10-02T04:56:09.597Z,9.83
2022-10-02T04:58:59.682Z,9.89
2022-10-02T05:01:54.209Z,9.84
2022-10-02T05:05:05.277Z,9.85
2022-10-02T05:08:03.937Z,9.82
2022-10-02T05:11:13.158Z,9.85
2022-10-02T05:14:03.680Z,9.89
2022-10-02T05:16:56.512Z,9.82
2022-10-02T05:19:58.121Z,9.90
2022-10-02T05:23:03.594Z,9.87
2022-10-02T05:26:03.099Z,9.90
2022-10-02T05:29:12.677Z,9.97
2022-10-02T05:32:16.140Z,10.11
2022-10-02T05:35:13.869Z,10.21
2022-10-02T05:37:59.435Z,10.35
2022-10-02T05:40:36.150Z,10.51
2022-10-02T05:43:12.121Z,10.50
2022-10-02T05:45:52.656Z,10.54
2022-10-02T05:48:28.463Z,10.58
2022-10-02T05:51:06.389Z,10.65
2022-10-02T05:53:41.801Z,10.79
2022-10-02T05:56:22.403Z,10.90
2022-10-02T05:58:58.501Z,11.02
2022-10-02T06:01:33.674Z,11.10
2022-10-02T06:04:13.299Z,11.24
2022-10-02T06:06:48.764Z,11.25
2022-10-02T06:09:24.284Z,11.14
2022-10-02T06:12:03.028Z,11.08
2022-10-02T06:14:40.980Z,10.94
2022-10-02T06:17:17.871Z,10.90
2022-10-02T06:20:01.012Z,10.90
2022-10-02T06:22:43.268Z,10.94
2022-10-02T06:25:22.953Z,10.92
2022-10-02T06:28:03.312Z,11.00
2022-10-02T06:30:38.876Z,11.06
2022-10-02T06:33:18.061Z,11.11
2022-10-02T06:36:22.634Z,11.29
2022-10-02T06:39:15.719Z,11.33
2022-10-02T06:42:01.930Z,12.08
2022-10-02T06:44:48.163Z,12.34
2022-10-02T06:47:35.760Z,12.89
2022-10-02T06:50:29.230Z,12.55
2022-10-02T06:53:12.095Z,12.68
2022-10-02T06:55:59.607Z,13.30
2022-10-02T06:58:48.595Z,13.75
2022-10-02T07:01:36.350Z,12.53
2022-10-02T07:04:46.556Z,12.64
2022-10-02T07:07:39.542Z,13.03
2022-10-02T07:10:30.866Z,13.39
2022-10-02T07:13:27.348Z,13.98
2022-10-02T07:16:42.159Z,13.37
2022-10-02T07:19:44.501Z,13.33
2022-10-02T07:22:45.595Z,13.27
2022-10-02T07:25:43.736Z,12.73
2022-10-02T07:28:27.900Z,12.57
2022-10-02T07:31:11.478Z,12.46
2022-10-02T07:34:13.510Z,12.65
2022-10-02T07:37:00.294Z,12.53
2022-10-02T07:39:47.342Z,12.44
2022-10-02T07:42:46.897Z,12.32
2022-10-02T07:45:37.979Z,12.12
2022-10-02T07:48:29.834Z,12.19
2022-10-02T07:51:43.824Z,12.23
2022-10-02T07:54:45.834Z,12.35
2022-10-02T07:57:39.874Z,12.43
2022-10-02T08:00:15.759Z,12.29
2022-10-02T08:02:57.108Z,12.33
2022-10-02T08:05:31.174Z,12.47
2022-10-02T08:08:08.263Z,12.68
2022-10-02T08:10:43.220Z,12.81
2022-10-02T08:13:20.679Z,12.69
2022-10-02T08:15:56.925Z,12.41
2022-10-02T08:18:35.808Z,12.29
2022-10-02T08:21:12.819Z,12.05
2022-10-02T08:23:50.631Z,12.06
2022-10-02T08:26:31.797Z,12.05
2022-10-02T08:29:12.035Z,12.00
2022-10-02T08:31:41.257Z,12.13
2022-10-02T08:34:18.425Z,12.39
2022-10-02T08:37:27.834Z,12.33
2022-10-02T08:40:48.724Z,12.05
2022-10-02T08:47:33.393Z,12.56
2022-10-02T08:50:48.668Z,12.95
2022-10-02T08:54:15.966Z,13.38
2022-10-02T08:57:22.809Z,13.82
2022-10-02T09:00:14.904Z,14.73
2022-10-02T09:03:54.427Z,14.80
2022-10-02T09:07:28.303Z,15.29
2022-10-02T09:11:01.705Z,15.63
2022-10-02T09:14:29.317Z,15.69
2022-10-02T09:17:45.358Z,15.60
2022-10-02T09:20:43.768Z,16.05
2022-10-02T09:24:10.110Z,16.24
2022-10-02T09:27:22.084Z,15.94
2022-10-02T09:30:20.416Z,14.96
2022-10-02T09:33:32.045Z,14.25
2022-10-02T09:36:55.341Z,14.88
2022-10-02T09:40:05.881Z,15.23
2022-10-02T09:43:19.010Z,15.02
2022-10-02T09:46:59.842Z,15.56
2022-10-02T09:50:23.383Z,16.22
2022-10-02T09:53:38.996Z,17.05
2022-10-02T09:57:11.735Z,16.55
2022-10-02T10:00:21.704Z,16.63
2022-10-02T10:03:36.716Z,16.55
2022-10-02T10:06:52.004Z,16.63
2022-10-02T10:10:26.893Z,17.05
2022-10-02T10:13:49.446Z,16.93
2022-10-02T10:16:56.949Z,17.54
2022-10-02T10:20:14.545Z,16.58
2022-10-02T10:23:43.596Z,16.81
2022-10-02T10:27:08.107Z,16.70
2022-10-02T10:30:22.221Z,16.51
2022-10-02T10:33:39.180Z,16.55
2022-10-02T10:36:57.215Z,16.91
2022-10-02T10:40:16.035Z,16.40
2022-10-02T10:43:29.220Z,15.15
2022-10-02T10:46:23.429Z,16.12
2022-10-02T10:49:27.312Z,15.99
2022-10-02T10:52:11.757Z,15.12
2022-10-02T10:55:20.389Z,15.36
2022-10-02T10:58:17.032Z,16.26
2022-10-02T11:01:11.104Z,16.50
2022-10-02T11:04:19.205Z,16.70
2022-10-02T11:07:18.367Z,16.65
2022-10-02T11:10:26.247Z,16.59
2022-10-02T11:13:27.055Z,17.12
2022-10-02T11:17:00.982Z,16.72
2022-10-02T11:20:08.802Z,15.81
2022-10-02T11:23:03.953Z,14.80
2022-10-02T11:26:02.249Z,14.32
2022-10-02T11:29:14.881Z,16.06
2022-10-02T11:32:35.334Z,16.73
2022-10-02T11:35:25.398Z,16.38
2022-10-02T11:38:18.061Z,16.63
2022-10-02T11:41:04.429Z,17.12
2022-10-02T11:44:01.517Z,17.20
2022-10-02T11:47:12.300Z,17.59
2022-10-02T11:50:30.029Z,17.38
2022-10-02T11:53:46.142Z,17.57
2022-10-02T11:56:45.423Z,17.46
2022-10-02T11:59:38.206Z,17.89
2022-10-02T12:02:17.173Z,16.89
2022-10-02T12:05:06.110Z,16.13
2022-10-02T12:07:55.696Z,16.88
2022-10-02T12:10:39.703Z,17.02
2022-10-02T12:13:31.254Z,17.07
2022-10-02T12:16:17.743Z,16.99
2022-10-02T12:19:05.930Z,17.15
2022-10-02T12:22:16.083Z,17.61
2022-10-02T12:25:19.385Z,17.32
2022-10-02T12:28:04.807Z,17.80
2022-10-02T12:30:44.136Z,17.96
2022-10-02T12:33:32.388Z,18.21
2022-10-02T12:36:42.194Z,16.96
2022-10-02T12:39:29.736Z,15.64
2022-10-02T12:42:20.544Z,15.93
2022-10-02T12:45:16.913Z,15.08
2022-10-02T12:48:11.857Z,14.08
2022-10-02T12:51:13.030Z,13.53
2022-10-02T12:54:44.017Z,13.02
2022-10-02T12:57:55.319Z,12.51
2022-10-02T13:00:32.325Z,13.44
2022-10-02T13:03:56.904Z,14.78
2022-10-02T13:07:30.415Z,15.78
2022-10-02T13:10:19.321Z,15.64
2022-10-02T13:13:20.152Z,16.03
2022-10-02T13:16:05.716Z,16.44
2022-10-02T13:19:03.171Z,16.60
2022-10-02T13:21:53.264Z,17.17
2022-10-02T13:24:41.584Z,18.02
2022-10-02T13:27:33.851Z,18.17
2022-10-02T13:30:15.952Z,17.49
2022-10-02T13:33:17.035Z,16.70
2022-10-02T13:36:05.337Z,16.98
2022-10-02T13:39:19.374Z,17.05
2022-10-02T13:42:18.268Z,18.02
2022-10-02T13:45:02.436Z,19.11
2022-10-02T13:47:57.948Z,19.09
2022-10-02T13:50:51.237Z,18.64
2022-10-02T13:54:06.118Z,17.74
2022-10-02T13:56:51.666Z,16.39
2022-10-02T13:59:39.009Z,15.76
2022-10-02T14:02:26.843Z,15.69
2022-10-02T14:05:14.606Z,15.23
2022-10-02T14:08:05.539Z,16.40
2022-10-02T14:10:54.513Z,17.67
2022-10-02T14:13:49.789Z,17.81
2022-10-02T14:16:39.639Z,17.62
2022-10-02T14:19:35.649Z,18.07
2022-10-02T14:22:26.368Z,18.92
2022-10-02T14:25:22.908Z,18.79
2022-10-02T14:28:35.574Z,19.33
2022-10-02T14:31:33.416Z,18.87
2022-10-02T14:34:50.887Z,19.33
2022-10-02T14:37:59.125Z,18.67
2022-10-02T14:40:35.932Z,17.95
2022-10-02T14:43:52.689Z,16.87
2022-10-02T14:46:36.741Z,18.17
2022-10-02T14:49:38.023Z,17.14
2022-10-02T14:52:33.233Z,16.51
2022-10-02T14:55:24.607Z,15.76
2022-10-02T14:58:29.178Z,15.34
2022-10-02T15:01:22.922Z,14.91
2022-10-02T15:04:23.444Z,14.69
2022-10-02T15:07:05.707Z,14.52
2022-10-02T15:10:08.720Z,14.54
2022-10-02T15:12:51.852Z,14.40
2022-10-02T15:15:31.822Z,14.15
2022-10-02T15:18:24.061Z,14.13
2022-10-02T15:21:02.706Z,14.25
2022-10-02T15:23:47.944Z,14.31
2022-10-02T15:26:47.377Z,14.11
2022-10-02T15:29:33.437Z,14.12
2022-10-02T15:32:53.952Z,14.11
2022-10-02T15:35:40.366Z,14.29
2022-10-02T15:38:45.844Z,14.45
2022-10-02T15:41:45.860Z,14.85
2022-10-02T15:44:53.975Z,14.84
2022-10-02T15:48:10.353Z,14.47
2022-10-02T15:50:54.582Z,14.07
2022-10-02T15:53:34.327Z,14.05
2022-10-02T15:56:29.826Z,13.93
2022-10-02T15:59:49.850Z,13.43
2022-10-02T16:02:42.657Z,13.13
2022-10-02T16:05:33.378Z,12.96
2022-10-02T16:08:22.844Z,12.81
2022-10-02T16:11:31.629Z,12.66
2022-10-02T16:14:14.109Z,12.63
2022-10-02T16:17:29.824Z,12.82
2022-10-02T16:20:29.456Z,12.97
2022-10-02T16:23:20.735Z,12.83
2022-10-02T16:26:10.789Z,12.71
2022-10-02T16:29:00.095Z,12.68
2022-10-02T16:31:59.145Z,12.60
2022-10-02T16:34:44.038Z,12.51
2022-10-02T16:37:26.535Z,12.38
2022-10-02T16:40:01.123Z,12.37
2022-10-02T16:42:49.641Z,12.32
2022-10-02T16:45:55.462Z,12.37
2022-10-02T16:48:40.448Z,12.43
2022-10-02T16:51:34.924Z,12.43
2022-10-02T16:54:19.839Z,12.51
2022-10-02T16:56:58.730Z,12.51
2022-10-02T16:59:34.362Z,12.46
2022-10-02T17:02:22.384Z,12.52
2022-10-02T17:05:09.798Z,12.59
2022-10-02T17:07:53.819Z,12.53
2022-10-02T17:10:38.483Z,12.56
2022-10-02T17:13:30.308Z,12.45
2022-10-02T17:16:09.320Z,12.45
2022-10-02T17:18:47.582Z,12.62
2022-10-02T17:21:29.746Z,12.52
2022-10-02T17:24:42.444Z,12.45
2022-10-02T17:27:20.319Z,12.44
2022-10-02T17:30:14.343Z,12.41
2022-10-02T17:33:05.586Z,12.39
2022-10-02T17:35:49.975Z,12.31
2022-10-02T17:38:44.332Z,12.36
2022-10-02T17:41:42.637Z,12.43
2022-10-02T17:44:25.953Z,12.35
2022-10-02T17:47:49.191Z,12.37
2022-10-02T17:51:47.613Z,12.33
2022-10-02T17:55:08.828Z,12.36
2022-10-02T17:58:04.855Z,12.19
2022-10-02T18:00:40.985Z,12.31
2022-10-02T18:03:46.374Z,12.18
2022-10-02T18:06:29.550Z,12.17
2022-10-02T18:09:38.963Z,12.26
2022-10-02T18:12:55.148Z,12.46
2022-10-02T18:15:42.671Z,12.51
2022-10-02T18:18:29.889Z,12.53
2022-10-02T18:21:16.802Z,12.53
2022-10-02T18:24:41.125Z,12.53
2022-10-02T18:27:28.146Z,12.47
2022-10-02T18:30:14.383Z,12.40
2022-10-02T18:33:18.782Z,12.47
2022-10-02T18:36:13.914Z,12.40
2022-10-02T18:39:02.699Z,12.31
2022-10-02T18:42:00.597Z,12.30
2022-10-02T18:44:58.654Z,12.33
2022-10-02T18:47:49.915Z,12.20
2022-10-02T18:50:40.984Z,12.28
2022-10-02T18:53:45.399Z,12.22
2022-10-02T18:56:27.640Z,12.19
2022-10-02T18:59:19.995Z,12.15
2022-10-02T19:02:05.793Z,12.15
2022-10-02T19:05:16.519Z,12.22
2022-10-02T19:07:54.879Z,12.23
2022-10-02T19:10:29.795Z,12.16
2022-10-02T19:13:17.754Z,12.12
2022-10-02T19:15:52.455Z,12.19
2022-10-02T19:18:24.654Z,12.03
2022-10-02T19:21:00.286Z,12.08
2022-10-02T19:23:35.876Z,12.08
2022-10-02T19:26:17.680Z,12.08
2022-10-02T19:28:55.347Z,12.05
2022-10-02T19:31:30.069Z,12.12
2022-10-02T19:34:03.865Z,12.01
2022-10-02T19:36:40.756Z,11.99
2022-10-02T19:39:24.918Z,12.01
2022-10-02T19:41:59.114Z,11.99
2022-10-02T19:44:33.847Z,12.01
2022-10-02T19:47:16.969Z,11.98
2022-10-02T19:49:51.898Z,11.88
2022-10-02T19:52:45.114Z,11.97
2022-10-02T19:55:27.559Z,12.08
2022-10-02T19:58:04.740Z,12.11
2022-10-02T20:00:38.669Z,12.19
2022-10-02T20:03:17.980Z,12.19
2022-10-02T20:05:50.743Z,12.12
2022-10-02T20:08:24.440Z,12.00
2022-10-02T20:11:03.879Z,11.98
2022-10-02T20:13:42.123Z,12.14
2022-10-02T20:16:36.989Z,12.24
2022-10-02T20:19:12.677Z,12.22
2022-10-02T20:21:46.594Z,12.20
2022-10-02T20:24:25.788Z,12.16
2022-10-02T20:27:03.219Z,12.11
2022-10-02T20:29:46.605Z,12.05
2022-10-02T20:32:24.140Z,11.99
2022-10-02T20:35:04.088Z,11.99
2022-10-02T20:37:35.837Z,11.92
2022-10-02T20:40:13.475Z,11.89
2022-10-02T20:42:54.351Z,11.86
2022-10-02T20:45:36.588Z,11.87
2022-10-02T20:49:09.929Z,11.85
2022-10-02T20:52:23.217Z,11.86
2022-10-02T20:55:06.809Z,11.83
2022-10-02T20:58:25.315Z,11.77
2022-10-02T21:01:17.614Z,11.82
2022-10-02T21:04:43.320Z,11.87
2022-10-02T21:07:53.573Z,11.87
2022-10-02T21:11:14.193Z,11.88
2022-10-02T21:14:42.097Z,11.95
2022-10-02T21:18:00.697Z,12.01
2022-10-02T21:21:11.563Z,12.06
2022-10-02T21:24:32.111Z,12.10
2022-10-02T21:27:34.981Z,12.10
2022-10-02T21:30:16.120Z,12.17
2022-10-02T21:33:14.089Z,12.13
2022-10-02T21:35:56.064Z,12.00
2022-10-02T21:39:22.968Z,12.03
2022-10-02T21:42:59.754Z,12.09
2022-10-02T21:46:08.391Z,12.10
2022-10-02T21:49:33.224Z,12.23
2022-10-02T21:52:54.494Z,12.20
2022-10-02T21:56:10.351Z,12.07
2022-10-02T21:59:37.862Z,12.02
2022-10-02T22:02:45.215Z,12.02
2022-10-02T22:06:07.221Z,11.95
2022-10-02T22:08:56.497Z,11.83
2022-10-02T22:11:44.462Z,11.84
2022-10-02T22:14:23.374Z,11.80
2022-10-02T22:16:59.740Z,11.91
2022-10-02T22:19:55.206Z,12.00
2022-10-02T22:22:47.895Z,12.16
2022-10-02T22:25:37.330Z,12.12
2022-10-02T22:28:25.607Z,12.09
2022-10-02T22:31:34.355Z,12.15
2022-10-02T22:34:22.392Z,12.08
2022-10-02T22:37:33.566Z,11.92
2022-10-02T22:40:09.404Z,11.81
2022-10-02T22:42:47.865Z,11.80
2022-10-02T22:45:27.211Z,11.74
2022-10-02T22:48:05.969Z,11.76
2022-10-02T22:50:49.231Z,11.77
2022-10-02T22:53:28.718Z,11.67
2022-10-02T22:55:59.151Z,11.66
2022-10-02T22:58:40.891Z,11.73
2022-10-02T23:01:20.644Z,11.72
2022-10-02T23:03:57.604Z,11.78
2022-10-02T23:06:34.849Z,11.88
2022-10-02T23:09:14.327Z,11.87
2022-10-02T23:11:51.418Z,11.95
2022-10-02T23:14:31.146Z,12.00
2022-10-02T23:17:12.023Z,11.96
2022-10-02T23:19:50.218Z,12.00
2022-10-02T23:22:31.069Z,12.06
2022-10-02T23:25:17.210Z,12.02
2022-10-02T23:27:57.743Z,11.96
2022-10-02T23:30:28.385Z,11.85
2022-10-02T23:33:04.138Z,11.88
2022-10-02T23:35:50.291Z,11.94
2022-10-02T23:38:28.280Z,11.98
2022-10-02T23:41:32.875Z,12.01
2022-10-02T23:44:17.635Z,12.05
2022-10-02T23:47:09.201Z,12.06
2022-10-02T23:49:45.885Z,12.12
2022-10-02T23:52:47.626Z,12.13
2022-10-02T23:55:43.084Z,12.12
2022-10-02T23:58:36.976Z,12.15
